Time;durP1;ratioP1;P1;durP2;ratioP2;P2;SDS_P1;SDS_P2;PMS_P1;PMS_P2;Temp;Humidity;BMP_temperature;BMP_pressure;BME280_temperature;BME280_humidity;BME280_pressure;Samples;Min_cycle;Max_cycle;Signal;HPM_P1;HPM_P2
2022/03/26 00:00:01;;;;;;;22.10;12.43;;;;;;;;;;5031936;28;20698;-79
2022/03/26 00:02:29;;;;;;;17.43;11.13;;;;;;;;;;5031731;28;20234;-79
2022/03/26 00:04:56;;;;;;;17.20;11.57;;;;;;;;;;5031976;28;20950;-79
2022/03/26 00:07:23;;;;;;;22.27;12.43;;;;;;;;;;5030603;28;20235;-79
2022/03/26 00:09:50;;;;;;;20.13;12.80;;;;;;;;;;5031620;28;20724;-78
2022/03/26 00:12:17;;;;;;;21.67;13.37;;;;;;;;;;5031069;28;20718;-79
2022/03/26 00:14:44;;;;;;;20.77;14.07;;;;;;;;;;5031924;28;20230;-79
2022/03/26 00:17:12;;;;;;;21.30;13.17;;;;;;;;;;5031271;28;20234;-79
2022/03/26 00:19:39;;;;;;;21.07;12.27;;;;;;;;;;5031809;28;20606;-79
2022/03/26 00:22:07;;;;;;;20.83;12.33;;;;;;;;;;5031488;28;20242;-78
2022/03/26 00:24:34;;;;;;;24.30;14.37;;;;;;;;;;5031716;28;20592;-79
2022/03/26 00:27:01;;;;;;;26.23;15.80;;;;;;;;;;5030831;28;20235;-80
2022/03/26 00:29:28;;;;;;;27.53;15.47;;;;;;;;;;5031621;28;20205;-79
2022/03/26 00:31:55;;;;;;;26.03;15.03;;;;;;;;;;5030832;28;20260;-80
2022/03/26 00:34:23;;;;;;;30.90;17.70;;;;;;;;;;5031862;28;20230;-79
2022/03/26 00:36:50;;;;;;;37.50;16.80;;;;;;;;;;5030941;28;20234;-79
2022/03/26 00:39:17;;;;;;;27.43;16.50;;;;;;;;;;5031868;28;20214;-79
2022/03/26 00:41:44;;;;;;;24.40;15.83;;;;;;;;;;5031139;28;20237;-79
2022/03/26 00:44:11;;;;;;;31.30;17.63;;;;;;;;;;5031566;28;20718;-79
2022/03/26 00:46:38;;;;;;;28.87;16.83;;;;;;;;;;5030972;28;20671;-79
2022/03/26 00:49:06;;;;;;;30.13;15.73;;;;;;;;;;5031822;28;20213;-79
2022/03/26 00:51:35;;;;;;;23.03;15.00;;;;;;;;;;5031761;28;20240;-79
2022/03/26 00:54:02;;;;;;;27.67;14.27;;;;;;;;;;5033062;28;20225;-79
2022/03/26 00:56:30;;;;;;;26.63;14.73;;;;;;;;;;5032013;28;20233;-79
2022/03/26 00:58:57;;;;;;;25.33;14.57;;;;;;;;;;5033136;28;20263;-78
2022/03/26 01:01:24;;;;;;;25.97;14.70;;;;;;;;;;5032712;28;20241;-79
2022/03/26 01:03:51;;;;;;;19.90;12.97;;;;;;;;;;5033089;28;20232;-79
2022/03/26 01:06:19;;;;;;;23.70;14.33;;;;;;;;;;5031456;28;20721;-79
2022/03/26 01:08:48;;;;;;;28.90;14.17;;;;;;;;;;5031332;28;20312;-80
2022/03/26 01:11:16;;;;;;;25.17;14.83;;;;;;;;;;5031148;28;20244;-78
2022/03/26 01:13:43;;;;;;;28.13;15.37;;;;;;;;;;5031151;28;20256;-79
2022/03/26 01:16:12;;;;;;;22.07;14.73;;;;;;;;;;5031045;28;20241;-79
2022/03/26 01:18:40;;;;;;;24.43;14.73;;;;;;;;;;5031418;28;20210;-79
2022/03/26 01:21:07;;;;;;;28.27;14.57;;;;;;;;;;5034317;28;20597;-79
2022/03/26 01:23:35;;;;;;;26.20;16.33;;;;;;;;;;5034637;28;20230;-79
2022/03/26 01:26:04;;;;;;;28.20;15.87;;;;;;;;;;5034248;28;20268;-79
2022/03/26 01:28:31;;;;;;;23.70;15.37;;;;;;;;;;5034800;28;20211;-79
2022/03/26 01:30:59;;;;;;;24.87;14.73;;;;;;;;;;5034191;28;20249;-79
2022/03/26 01:33:26;;;;;;;26.33;15.33;;;;;;;;;;5034677;28;20611;-79
2022/03/26 01:35:53;;;;;;;25.33;14.73;;;;;;;;;;5034247;28;20293;-79
2022/03/26 01:38:21;;;;;;;24.07;14.97;;;;;;;;;;5034271;28;20848;-79
2022/03/26 01:40:48;;;;;;;24.30;13.90;;;;;;;;;;5033838;28;20242;-78
2022/03/26 01:43:16;;;;;;;22.57;13.87;;;;;;;;;;5034449;28;20822;-78
2022/03/26 01:45:43;;;;;;;23.23;13.17;;;;;;;;;;5033933;28;20235;-79
2022/03/26 01:48:10;;;;;;;24.00;14.67;;;;;;;;;;5034161;28;20623;-78
2022/03/26 01:50:39;;;;;;;25.23;15.50;;;;;;;;;;5033972;28;20228;-79
2022/03/26 01:53:06;;;;;;;21.60;14.70;;;;;;;;;;5034485;28;20281;-79
2022/03/26 01:55:33;;;;;;;24.30;15.13;;;;;;;;;;5033595;28;20599;-79
2022/03/26 01:58:00;;;;;;;25.23;15.57;;;;;;;;;;5033702;28;20281;-79
2022/03/26 02:00:28;;;;;;;27.30;16.67;;;;;;;;;;5031092;28;20245;-78
2022/03/26 02:02:56;;;;;;;23.63;14.00;;;;;;;;;;5030741;28;20216;-80
2022/03/26 02:05:25;;;;;;;23.67;15.73;;;;;;;;;;5033778;28;20594;-78
2022/03/26 02:07:52;;;;;;;25.23;15.90;;;;;;;;;;5031177;28;20203;-79
2022/03/26 02:10:20;;;;;;;26.90;16.67;;;;;;;;;;5033260;28;20241;-79
2022/03/26 02:12:47;;;;;;;28.17;16.13;;;;;;;;;;5033591;28;20260;-79
2022/03/26 02:15:14;;;;;;;25.03;14.43;;;;;;;;;;5033343;28;20226;-79
2022/03/26 02:17:43;;;;;;;23.10;13.83;;;;;;;;;;5033475;28;20217;-79
2022/03/26 02:20:12;;;;;;;26.03;15.10;;;;;;;;;;5033667;28;20277;-80
2022/03/26 02:22:40;;;;;;;24.20;15.33;;;;;;;;;;5033769;28;20229;-79
2022/03/26 02:25:08;;;;;;;23.33;12.90;;;;;;;;;;5032241;28;20242;-79
2022/03/26 02:27:35;;;;;;;23.27;13.83;;;;;;;;;;5033628;28;20646;-79
2022/03/26 02:30:02;;;;;;;27.03;14.50;;;;;;;;;;5032836;28;20214;-78
2022/03/26 02:32:30;;;;;;;24.27;14.77;;;;;;;;;;5033324;28;20230;-79
2022/03/26 02:34:57;;;;;;;23.60;14.87;;;;;;;;;;5033362;28;20227;-79
2022/03/26 02:37:25;;;;;;;30.40;15.47;;;;;;;;;;5033044;28;20256;-78
2022/03/26 02:39:53;;;;;;;25.47;15.27;;;;;;;;;;5033719;28;20649;-79
2022/03/26 02:42:20;;;;;;;25.40;14.70;;;;;;;;;;5033014;28;20234;-79
2022/03/26 02:44:47;;;;;;;25.40;14.07;;;;;;;;;;5033770;28;20226;-77
2022/03/26 02:47:14;;;;;;;22.63;14.33;;;;;;;;;;5032635;28;20236;-76
2022/03/26 02:49:41;;;;;;;22.17;14.57;;;;;;;;;;5032833;28;20662;-77
2022/03/26 02:52:09;;;;;;;22.20;13.57;;;;;;;;;;5032620;28;20237;-76
2022/03/26 02:54:38;;;;;;;25.97;15.00;;;;;;;;;;5033015;28;20229;-77
2022/03/26 02:57:05;;;;;;;20.83;13.80;;;;;;;;;;5032845;28;20241;-77
2022/03/26 02:59:32;;;;;;;22.47;14.30;;;;;;;;;;5033180;28;20253;-78
2022/03/26 03:01:59;;;;;;;21.03;13.60;;;;;;;;;;5032446;28;20234;-78
2022/03/26 03:04:26;;;;;;;22.70;14.77;;;;;;;;;;5033065;28;20219;-77
2022/03/26 03:06:54;;;;;;;26.90;14.80;;;;;;;;;;5031973;28;20239;-77
2022/03/26 03:09:21;;;;;;;22.13;13.33;;;;;;;;;;5032982;28;20222;-77
2022/03/26 03:11:50;;;;;;;24.70;12.83;;;;;;;;;;5032173;28;20242;-77
2022/03/26 03:14:17;;;;;;;20.23;13.17;;;;;;;;;;5032422;28;20238;-77
2022/03/26 03:16:45;;;;;;;21.50;13.27;;;;;;;;;;5031909;28;20235;-77
2022/03/26 03:19:12;;;;;;;23.70;13.20;;;;;;;;;;5032816;28;20280;-77
2022/03/26 03:21:39;;;;;;;20.60;13.07;;;;;;;;;;5031719;28;20226;-77
2022/03/26 03:24:07;;;;;;;20.87;13.07;;;;;;;;;;5032358;28;20238;-77
2022/03/26 03:26:34;;;;;;;26.23;12.70;;;;;;;;;;5031755;28;20238;-77
2022/03/26 03:29:02;;;;;;;25.23;14.03;;;;;;;;;;5032091;28;20305;-77
2022/03/26 03:31:29;;;;;;;27.87;15.30;;;;;;;;;;5031998;28;20284;-77
2022/03/26 03:33:57;;;;;;;20.17;12.83;;;;;;;;;;5032144;28;20233;-77
2022/03/26 03:36:24;;;;;;;19.63;12.20;;;;;;;;;;5031887;28;20235;-79
2022/03/26 03:38:51;;;;;;;23.87;13.40;;;;;;;;;;5032277;28;20206;-78
2022/03/26 03:41:18;;;;;;;24.97;13.70;;;;;;;;;;5031699;28;20237;-77
2022/03/26 03:43:45;;;;;;;20.50;12.50;;;;;;;;;;5031899;28;20635;-77
2022/03/26 03:46:14;;;;;;;23.90;12.97;;;;;;;;;;5031732;28;20643;-77
2022/03/26 03:48:41;;;;;;;21.00;12.63;;;;;;;;;;5031680;28;20209;-78
2022/03/26 03:51:08;;;;;;;22.30;13.27;;;;;;;;;;5031672;28;20296;-77
2022/03/26 03:53:35;;;;;;;24.53;14.70;;;;;;;;;;5031905;28;20357;-77
2022/03/26 03:56:02;;;;;;;23.30;13.90;;;;;;;;;;5031723;28;20238;-77
2022/03/26 03:58:29;;;;;;;23.03;13.43;;;;;;;;;;5032025;28;20214;-77
2022/03/26 04:00:57;;;;;;;23.80;14.07;;;;;;;;;;5031627;28;20242;-77
2022/03/26 04:03:25;;;;;;;28.60;13.90;;;;;;;;;;5032000;28;20203;-77
2022/03/26 04:05:52;;;;;;;21.00;14.43;;;;;;;;;;5031198;28;20231;-77
2022/03/26 04:08:20;;;;;;;22.93;14.93;;;;;;;;;;5031729;28;20214;-77
2022/03/26 04:10:47;;;;;;;26.67;14.00;;;;;;;;;;5031518;28;20238;-77
2022/03/26 04:13:14;;;;;;;24.93;14.27;;;;;;;;;;5031678;28;20197;-77
2022/03/26 04:15:42;;;;;;;20.60;13.60;;;;;;;;;;5031268;28;20226;-77
2022/03/26 04:18:09;;;;;;;20.87;13.70;;;;;;;;;;5031585;28;20736;-77
2022/03/26 04:20:37;;;;;;;24.50;13.33;;;;;;;;;;5031449;28;20233;-78
2022/03/26 04:23:04;;;;;;;23.97;14.57;;;;;;;;;;5031737;28;20227;-77
2022/03/26 04:25:32;;;;;;;28.97;14.87;;;;;;;;;;5032201;28;20690;-77
2022/03/26 04:27:59;;;;;;;27.13;14.83;;;;;;;;;;5032739;28;20246;-77
2022/03/26 04:30:26;;;;;;;27.20;13.90;;;;;;;;;;5032011;28;20284;-77
2022/03/26 04:32:53;;;;;;;27.57;15.00;;;;;;;;;;5032441;28;20268;-77
2022/03/26 04:35:21;;;;;;;20.47;12.97;;;;;;;;;;5031564;28;20229;-78
2022/03/26 04:37:51;;;;;;;24.77;13.47;;;;;;;;;;5032025;28;20238;-77
2022/03/26 04:40:18;;;;;;;22.27;14.00;;;;;;;;;;5031818;28;20298;-77
2022/03/26 04:42:45;;;;;;;23.63;13.90;;;;;;;;;;5032147;28;20230;-77
2022/03/26 04:45:12;;;;;;;28.03;14.70;;;;;;;;;;5031758;28;20233;-77
2022/03/26 04:47:40;;;;;;;25.60;14.33;;;;;;;;;;5031993;28;20206;-78
2022/03/26 04:50:08;;;;;;;22.40;13.47;;;;;;;;;;5031596;28;20216;-77
2022/03/26 04:52:35;;;;;;;20.40;13.13;;;;;;;;;;5032110;28;20658;-77
2022/03/26 04:55:04;;;;;;;24.73;13.50;;;;;;;;;;5034865;28;20240;-77
2022/03/26 04:57:32;;;;;;;21.73;13.43;;;;;;;;;;5035308;28;20319;-77
2022/03/26 04:59:59;;;;;;;25.23;13.90;;;;;;;;;;5035722;28;20240;-77
2022/03/26 05:02:26;;;;;;;23.20;14.03;;;;;;;;;;5035406;28;20241;-77
2022/03/26 05:04:53;;;;;;;21.20;13.23;;;;;;;;;;5035418;28;20583;-77
2022/03/26 05:10:07;;;;;;;24.07;12.73;;;;;;;;;;5035510;28;20280;-78
2022/03/26 05:12:34;;;;;;;24.80;13.40;;;;;;;;;;5035673;28;20210;-77
2022/03/26 05:15:01;;;;;;;23.10;13.20;;;;;;;;;;5035260;28;20376;-77
2022/03/26 05:17:28;;;;;;;21.90;12.43;;;;;;;;;;5034912;28;20229;-77
2022/03/26 05:19:55;;;;;;;24.63;13.13;;;;;;;;;;5035000;28;20214;-77
2022/03/26 05:22:22;;;;;;;27.67;12.83;;;;;;;;;;5034795;28;20251;-77
2022/03/26 05:24:49;;;;;;;27.80;13.13;;;;;;;;;;5034714;28;20798;-77
2022/03/26 05:27:17;;;;;;;20.80;13.13;;;;;;;;;;5034366;28;20244;-77
2022/03/26 05:29:46;;;;;;;24.33;12.57;;;;;;;;;;5035232;28;20674;-77
2022/03/26 05:32:13;;;;;;;21.93;13.60;;;;;;;;;;5034922;28;20232;-77
2022/03/26 05:34:40;;;;;;;23.90;13.00;;;;;;;;;;5034740;28;20233;-78
2022/03/26 05:37:07;;;;;;;24.07;14.13;;;;;;;;;;5034172;28;20249;-77
2022/03/26 05:39:34;;;;;;;22.43;13.90;;;;;;;;;;5035045;28;20208;-77
2022/03/26 05:42:01;;;;;;;21.97;13.53;;;;;;;;;;5034153;28;20324;-77
2022/03/26 05:44:30;;;;;;;25.33;13.93;;;;;;;;;;5034665;28;20226;-77
2022/03/26 05:46:57;;;;;;;24.90;14.13;;;;;;;;;;5034133;28;20587;-77
2022/03/26 05:49:24;;;;;;;25.73;13.23;;;;;;;;;;5034030;28;20727;-77
2022/03/26 05:51:51;;;;;;;24.53;13.27;;;;;;;;;;5033760;28;20264;-77
2022/03/26 05:54:19;;;;;;;29.53;14.07;;;;;;;;;;5034543;28;20234;-77
2022/03/26 05:56:51;;;;;;;20.77;12.37;;;;;;;;;;5033950;28;20340;-77
2022/03/26 05:59:19;;;;;;;27.97;13.57;;;;;;;;;;5034380;28;20221;-77
2022/03/26 06:01:48;;;;;;;25.03;14.00;;;;;;;;;;5033405;28;20263;-78
2022/03/26 06:04:15;;;;;;;27.47;14.07;;;;;;;;;;5034131;28;20218;-77
2022/03/26 06:06:42;;;;;;;32.13;14.63;;;;;;;;;;5032516;28;20315;-78
2022/03/26 06:09:09;;;;;;;31.27;13.03;;;;;;;;;;5034378;28;20248;-78
2022/03/26 06:11:36;;;;;;;26.00;13.87;;;;;;;;;;5034029;28;20242;-77
2022/03/26 06:14:04;;;;;;;22.90;13.23;;;;;;;;;;5033750;28;20727;-77
2022/03/26 06:16:31;;;;;;;26.80;14.07;;;;;;;;;;5036276;28;20241;-78
2022/03/26 06:19:00;;;;;;;25.30;14.37;;;;;;;;;;5039470;28;20222;-78
2022/03/26 06:21:28;;;;;;;26.73;14.33;;;;;;;;;;5038914;28;20245;-77
2022/03/26 06:23:57;;;;;;;24.77;14.77;;;;;;;;;;5040253;28;20238;-77
2022/03/26 06:26:24;;;;;;;24.10;13.00;;;;;;;;;;5040200;28;20629;-78
2022/03/26 06:28:51;;;;;;;27.83;15.17;;;;;;;;;;5040448;28;20209;-78
2022/03/26 06:31:18;;;;;;;28.73;14.17;;;;;;;;;;5039594;28;20268;-78
2022/03/26 06:33:45;;;;;;;31.60;15.57;;;;;;;;;;5039857;28;20237;-78
2022/03/26 06:36:14;;;;;;;27.77;15.37;;;;;;;;;;5039005;28;20238;-78
2022/03/26 06:38:44;;;;;;;29.27;15.33;;;;;;;;;;5039646;28;20208;-77
2022/03/26 06:41:11;;;;;;;28.57;14.90;;;;;;;;;;5039860;28;20280;-78
2022/03/26 06:43:38;;;;;;;29.00;15.87;;;;;;;;;;5040567;28;20233;-78
2022/03/26 06:46:05;;;;;;;31.27;16.70;;;;;;;;;;5040762;28;20237;-78
2022/03/26 06:48:33;;;;;;;29.87;16.53;;;;;;;;;;5043910;28;20237;-80
2022/03/26 06:51:00;;;;;;;34.47;15.97;;;;;;;;;;5043486;28;20283;-81
2022/03/26 06:53:29;;;;;;;29.33;14.53;;;;;;;;;;5044946;28;20267;-80
2022/03/26 06:55:56;;;;;;;31.70;17.77;;;;;;;;;;5043923;28;20248;-81
2022/03/26 06:58:23;;;;;;;28.87;15.60;;;;;;;;;;5043582;28;20201;-81
2022/03/26 07:00:51;;;;;;;28.67;15.63;;;;;;;;;;5040372;28;20233;-82
2022/03/26 07:03:18;;;;;;;41.53;17.63;;;;;;;;;;5041319;28;20288;-82
2022/03/26 07:05:46;;;;;;;30.67;17.83;;;;;;;;;;5034812;28;20329;-83
2022/03/26 07:08:13;;;;;;;33.10;17.60;;;;;;;;;;5034848;28;20195;-83
2022/03/26 07:10:45;;;;;;;33.53;17.60;;;;;;;;;;5033845;28;20702;-82
2022/03/26 07:13:12;;;;;;;25.80;15.57;;;;;;;;;;5037629;28;20222;-82
2022/03/26 07:15:39;;;;;;;36.63;17.80;;;;;;;;;;5038317;28;20628;-81
2022/03/26 07:18:07;;;;;;;30.03;16.53;;;;;;;;;;5050155;28;20214;-82
2022/03/26 07:20:34;;;;;;;42.27;16.83;;;;;;;;;;5050670;28;20234;-82
2022/03/26 07:23:01;;;;;;;32.70;16.63;;;;;;;;;;5048843;28;20229;-82
2022/03/26 07:25:29;;;;;;;27.17;15.60;;;;;;;;;;5034566;28;20238;-83
2022/03/26 07:28:00;;;;;;;26.47;16.43;;;;;;;;;;5034101;28;20205;-83
2022/03/26 07:30:27;;;;;;;27.43;15.70;;;;;;;;;;5034744;28;20234;-82
2022/03/26 07:32:54;;;;;;;26.83;15.10;;;;;;;;;;5035210;28;20206;-83
2022/03/26 07:35:22;;;;;;;29.57;16.33;;;;;;;;;;5035376;28;20595;-83
2022/03/26 07:37:50;;;;;;;30.47;15.87;;;;;;;;;;5034860;28;20653;-83
2022/03/26 07:40:17;;;;;;;28.27;15.57;;;;;;;;;;5035541;28;20206;-83
2022/03/26 07:42:44;;;;;;;27.83;15.40;;;;;;;;;;5035260;28;20231;-82
2022/03/26 07:45:12;;;;;;;25.17;16.73;;;;;;;;;;5035100;28;20237;-83
2022/03/26 07:47:39;;;;;;;30.27;15.40;;;;;;;;;;5035516;28;20556;-83
2022/03/26 07:50:07;;;;;;;31.20;15.70;;;;;;;;;;5018303;28;20211;-82
2022/03/26 07:52:35;;;;;;;32.77;16.20;;;;;;;;;;5020309;28;20897;-80
2022/03/26 07:55:02;;;;;;;30.17;15.97;;;;;;;;;;5036340;28;20218;-81
2022/03/26 07:57:29;;;;;;;27.57;15.53;;;;;;;;;;5037239;28;20228;-82
2022/03/26 07:59:56;;;;;;;25.00;15.67;;;;;;;;;;5038626;28;20217;-81
2022/03/26 08:02:25;;;;;;;24.67;13.83;;;;;;;;;;5039595;28;20637;-81
2022/03/26 08:04:52;;;;;;;25.97;15.03;;;;;;;;;;5038320;28;20232;-83
2022/03/26 08:07:21;;;;;;;27.13;14.87;;;;;;;;;;5040012;28;20328;-82
2022/03/26 08:09:48;;;;;;;27.70;14.97;;;;;;;;;;5041986;28;20210;-82
2022/03/26 08:12:15;;;;;;;25.50;14.23;;;;;;;;;;5042862;28;20257;-82
2022/03/26 08:14:42;;;;;;;26.43;15.87;;;;;;;;;;5041841;28;20226;-81
2022/03/26 08:17:09;;;;;;;28.43;15.10;;;;;;;;;;5046476;28;20237;-80
2022/03/26 08:19:38;;;;;;;27.97;14.43;;;;;;;;;;5050531;28;20210;-81
2022/03/26 08:22:05;;;;;;;24.93;13.77;;;;;;;;;;5041490;28;20238;-80
2022/03/26 08:24:32;;;;;;;27.07;15.37;;;;;;;;;;5027553;28;20231;-82
2022/03/26 08:26:59;;;;;;;26.40;14.93;;;;;;;;;;5025680;28;20237;-80
2022/03/26 08:29:28;;;;;;;22.53;13.70;;;;;;;;;;5040163;28;20191;-81
2022/03/26 08:31:55;;;;;;;22.73;15.00;;;;;;;;;;5042501;28;20613;-81
2022/03/26 08:34:22;;;;;;;26.57;15.43;;;;;;;;;;5043320;28;20313;-81
2022/03/26 08:36:51;;;;;;;24.30;14.90;;;;;;;;;;5043804;28;20265;-80
2022/03/26 08:39:18;;;;;;;25.37;14.30;;;;;;;;;;5046296;28;20561;-81
2022/03/26 08:41:45;;;;;;;25.07;13.60;;;;;;;;;;5045227;28;20288;-81
2022/03/26 08:44:12;;;;;;;27.00;14.37;;;;;;;;;;5045125;28;20227;-81
2022/03/26 08:46:40;;;;;;;28.57;15.30;;;;;;;;;;5043483;28;20234;-80
2022/03/26 08:49:07;;;;;;;27.03;15.53;;;;;;;;;;5044825;28;20266;-81
2022/03/26 08:51:34;;;;;;;28.57;13.60;;;;;;;;;;5046359;28;20244;-80
2022/03/26 08:54:03;;;;;;;27.27;14.27;;;;;;;;;;5047761;28;20269;-81
2022/03/26 08:56:31;;;;;;;30.13;14.80;;;;;;;;;;5046340;28;20269;-80
2022/03/26 08:58:58;;;;;;;25.70;14.67;;;;;;;;;;5046630;28;20210;-80
2022/03/26 09:01:25;;;;;;;31.73;15.73;;;;;;;;;;5045889;28;20253;-81
2022/03/26 09:03:52;;;;;;;24.27;14.43;;;;;;;;;;5046213;28;20231;-80
2022/03/26 09:06:20;;;;;;;25.23;14.70;;;;;;;;;;5045209;28;20656;-81
2022/03/26 09:08:47;;;;;;;25.27;13.93;;;;;;;;;;5043643;28;20277;-79
2022/03/26 09:11:15;;;;;;;25.50;15.97;;;;;;;;;;5042424;28;20238;-79
2022/03/26 09:13:42;;;;;;;27.30;14.87;;;;;;;;;;5045117;28;20223;-79
2022/03/26 09:16:09;;;;;;;25.80;13.63;;;;;;;;;;5044407;28;20241;-79
2022/03/26 09:18:36;;;;;;;22.03;14.30;;;;;;;;;;5045549;28;20195;-79
2022/03/26 09:21:04;;;;;;;25.83;14.90;;;;;;;;;;5045217;28;20238;-79
2022/03/26 09:23:32;;;;;;;20.87;14.00;;;;;;;;;;5044518;28;20231;-80
2022/03/26 09:26:00;;;;;;;26.03;13.87;;;;;;;;;;5042968;28;20293;-79
2022/03/26 09:28:28;;;;;;;26.00;15.10;;;;;;;;;;5043845;28;20286;-79
2022/03/26 09:30:55;;;;;;;28.00;16.17;;;;;;;;;;5034624;28;20265;-80
2022/03/26 09:33:22;;;;;;;26.07;15.30;;;;;;;;;;5033087;28;20200;-80
2022/03/26 09:35:49;;;;;;;25.43;15.33;;;;;;;;;;5038906;28;20234;-82
2022/03/26 09:38:16;;;;;;;26.23;15.37;;;;;;;;;;5044187;28;20214;-80
2022/03/26 09:40:44;;;;;;;23.57;14.93;;;;;;;;;;5045656;28;20253;-80
2022/03/26 09:43:14;;;;;;;27.23;15.10;;;;;;;;;;5046446;28;20226;-80
2022/03/26 09:45:42;;;;;;;28.87;14.80;;;;;;;;;;5049589;28;20515;-79
2022/03/26 09:48:09;;;;;;;26.67;15.97;;;;;;;;;;5049318;28;20206;-81
2022/03/26 09:50:37;;;;;;;22.57;14.27;;;;;;;;;;5045254;28;20234;-80
2022/03/26 09:53:04;;;;;;;25.87;15.50;;;;;;;;;;5046401;28;20206;-81
2022/03/26 09:55:32;;;;;;;25.17;14.87;;;;;;;;;;5045140;28;20234;-80
2022/03/26 09:57:59;;;;;;;25.80;15.03;;;;;;;;;;5048093;28;20198;-80
2022/03/26 10:00:26;;;;;;;30.10;15.17;;;;;;;;;;5044012;28;20235;-79
2022/03/26 10:02:54;;;;;;;24.87;15.80;;;;;;;;;;5047910;28;20207;-82
2022/03/26 10:05:21;;;;;;;27.42;15.75;;;;;;;;;;5047767;28;20729;-80
2022/03/26 10:07:50;;;;;;;23.98;14.63;;;;;;;;;;5043397;28;20233;-78
2022/03/26 10:10:24;;;;;;;27.08;14.80;;;;;;;;;;5042243;28;20217;-78
2022/03/26 10:12:52;;;;;;;26.60;16.35;;;;;;;;;;5037216;28;20207;-80
2022/03/26 10:15:19;;;;;;;28.50;14.90;;;;;;;;;;5036327;28;20226;-78
2022/03/26 10:17:47;;;;;;;25.40;15.00;;;;;;;;;;5031900;28;20214;-80
2022/03/26 10:20:16;;;;;;;22.27;14.57;;;;;;;;;;5046896;28;20817;-81
2022/03/26 10:22:44;;;;;;;24.20;15.43;;;;;;;;;;5046123;28;20309;-81
2022/03/26 10:25:13;;;;;;;21.67;13.63;;;;;;;;;;5049270;28;20227;-80
2022/03/26 10:27:42;;;;;;;27.08;14.60;;;;;;;;;;5050058;28;20207;-78
2022/03/26 10:30:10;;;;;;;22.48;14.85;;;;;;;;;;5063463;22;20237;-82
2022/03/26 10:32:41;;;;;;;25.92;15.02;;;;;;;;;;5053065;28;20661;-81
2022/03/26 10:35:18;;;;;;;23.02;15.10;;;;;;;;;;5052734;28;20194;-82
2022/03/26 10:37:46;;;;;;;23.10;15.02;;;;;;;;;;5052450;28;20189;-81
2022/03/26 10:40:20;;;;;;;20.85;14.02;;;;;;;;;;5052566;28;20225;-82
2022/03/26 10:42:52;;;;;;;29.35;16.88;;;;;;;;;;5053807;28;20195;-84
2022/03/26 10:45:20;;;;;;;20.17;13.40;;;;;;;;;;5053549;28;20210;-84
2022/03/26 10:47:48;;;;;;;23.95;14.07;;;;;;;;;;5053235;28;20305;-83
2022/03/26 10:50:16;;;;;;;19.85;13.30;;;;;;;;;;5042084;28;20242;-82
2022/03/26 10:52:43;;;;;;;21.73;14.00;;;;;;;;;;5053854;28;20216;-85
2022/03/26 10:55:16;;;;;;;21.73;13.25;;;;;;;;;;5024630;28;20183;-86
2022/03/26 10:57:50;;;;;;;21.27;13.40;;;;;;;;;;5033934;28;20272;-86
2022/03/26 11:00:19;;;;;;;24.02;14.98;;;;;;;;;;5034779;28;20264;-84
2022/03/26 11:02:46;;;;;;;25.45;14.85;;;;;;;;;;5035563;28;20666;-82
2022/03/26 11:05:13;;;;;;;18.10;13.35;;;;;;;;;;5036571;28;20226;-85
2022/03/26 11:07:42;;;;;;;18.42;13.07;;;;;;;;;;5035182;28;20205;-85
2022/03/26 11:10:10;;;;;;;24.05;12.80;;;;;;;;;;5034679;28;20222;-86
2022/03/26 11:12:38;;;;;;;19.42;12.13;;;;;;;;;;5036913;28;20207;-86
2022/03/26 11:15:08;;;;;;;21.38;12.43;;;;;;;;;;5036333;28;20211;-85
2022/03/26 11:17:39;;;;;;;19.30;13.50;;;;;;;;;;5036471;28;20206;-86
2022/03/26 11:20:10;;;;;;;17.98;11.48;;;;;;;;;;5034633;28;20223;-84
2022/03/26 11:22:48;;;;;;;18.92;12.65;;;;;;;;;;5035922;28;20210;-86
2022/03/26 11:25:25;;;;;;;20.10;12.23;;;;;;;;;;5034876;28;20230;-86
2022/03/26 11:28:11;;;;;;;19.25;12.65;;;;;;;;;;5049154;28;20206;-85
2022/03/26 11:30:43;;;;;;;20.27;13.48;;;;;;;;;;5035428;28;20230;-85
2022/03/26 11:33:11;;;;;;;25.35;13.57;;;;;;;;;;5035228;28;20671;-86
2022/03/26 11:35:50;;;;;;;19.85;12.63;;;;;;;;;;5034384;28;20260;-86
2022/03/26 11:38:18;;;;;;;16.02;11.55;;;;;;;;;;5035453;28;20658;-86
2022/03/26 11:40:46;;;;;;;17.52;11.68;;;;;;;;;;5034419;28;20242;-86
2022/03/26 11:43:16;;;;;;;18.63;11.32;;;;;;;;;;5034797;28;20689;-85
2022/03/26 11:51:22;;;;;;;18.67;12.05;;;;;;;;;;5034135;28;20238;-86
2022/03/26 11:53:52;;;;;;;15.65;11.70;;;;;;;;;;5034394;28;20241;-86
2022/03/26 11:56:23;;;;;;;17.88;12.73;;;;;;;;;;5033011;28;20238;-85
2022/03/26 11:59:11;;;;;;;18.55;9.25;;;;;;;;;;5033168;28;20223;-87
2022/03/26 12:01:39;;;;;;;18.10;9.40;;;;;;;;;;5042151;28;20365;-86
2022/03/26 12:04:12;;;;;;;16.40;8.23;;;;;;;;;;5034842;28;20317;-86
2022/03/26 12:06:43;;;;;;;14.35;8.30;;;;;;;;;;5035336;28;20250;-87
2022/03/26 12:09:12;;;;;;;13.75;7.63;;;;;;;;;;5038899;28;20230;-86
2022/03/26 12:11:39;;;;;;;12.02;7.15;;;;;;;;;;5033321;28;20321;-87
2022/03/26 12:14:07;;;;;;;12.48;6.80;;;;;;;;;;5033872;28;20209;-87
2022/03/26 12:17:02;;;;;;;13.02;7.43;;;;;;;;;;5033062;28;20234;-85
2022/03/26 12:19:39;;;;;;;13.25;6.88;;;;;;;;;;5009914;28;20290;-87
2022/03/26 12:22:19;;;;;;;13.40;7.13;;;;;;;;;;5032874;28;20241;-86
2022/03/26 12:24:48;;;;;;;9.35;5.10;;;;;;;;;;5033078;28;20226;-86
2022/03/26 12:27:15;;;;;;;18.70;7.18;;;;;;;;;;5032427;28;20705;-87
2022/03/26 12:29:43;;;;;;;15.77;9.00;;;;;;;;;;5033045;28;20230;-86
2022/03/26 12:32:10;;;;;;;14.32;8.98;;;;;;;;;;5033046;28;20234;-86
2022/03/26 12:34:52;;;;;;;14.15;7.72;;;;;;;;;;5033449;28;20198;-86
2022/03/26 12:37:19;;;;;;;15.48;9.25;;;;;;;;;;5032731;28;20230;-86
2022/03/26 12:39:47;;;;;;;13.02;8.32;;;;;;;;;;5032990;28;20601;-86
2022/03/26 12:42:14;;;;;;;14.90;9.35;;;;;;;;;;5033111;28;20714;-86
2022/03/26 12:44:41;;;;;;;14.73;9.82;;;;;;;;;;5033002;28;20237;-86
2022/03/26 12:47:08;;;;;;;14.63;9.73;;;;;;;;;;5033009;28;20245;-86
2022/03/26 12:49:37;;;;;;;17.17;10.55;;;;;;;;;;5032871;28;20222;-86
2022/03/26 12:52:05;;;;;;;15.43;9.93;;;;;;;;;;5032747;28;20334;-87
2022/03/26 12:54:32;;;;;;;17.67;9.45;;;;;;;;;;5033028;28;20267;-86
2022/03/26 12:57:03;;;;;;;12.80;8.68;;;;;;;;;;5032149;28;20334;-86
2022/03/26 12:59:29;;;;;;;16.63;9.55;;;;;;;;;;5033380;28;20593;-87
2022/03/26 13:01:59;;;;;;;12.77;10.15;;;;;;;;;;5035705;28;20253;-87
2022/03/26 13:04:26;;;;;;;16.25;9.40;;;;;;;;;;5052922;28;20234;-86
2022/03/26 13:06:56;;;;;;;13.95;9.50;;;;;;;;;;5052127;28;20240;-86
2022/03/26 13:09:29;;;;;;;15.55;8.88;;;;;;;;;;5052035;28;20222;-86
2022/03/26 13:11:57;;;;;;;16.83;9.30;;;;;;;;;;5051880;28;20582;-86
2022/03/26 13:14:26;;;;;;;15.27;9.80;;;;;;;;;;5052214;28;20202;-87
2022/03/26 13:16:53;;;;;;;15.85;9.18;;;;;;;;;;5054929;28;20241;-87
2022/03/26 13:19:20;;;;;;;16.02;8.50;;;;;;;;;;5055905;28;20233;-87
2022/03/26 13:21:49;;;;;;;19.08;8.52;;;;;;;;;;5055434;28;20716;-87
2022/03/26 13:24:17;;;;;;;16.85;8.48;;;;;;;;;;5055672;28;20225;-87
2022/03/26 13:26:45;;;;;;;14.63;7.95;;;;;;;;;;5055134;28;20241;-87
2022/03/26 13:29:13;;;;;;;13.82;8.60;;;;;;;;;;5055296;28;20249;-86
2022/03/26 13:31:45;;;;;;;14.48;8.05;;;;;;;;;;5055111;28;20275;-85
2022/03/26 13:34:13;;;;;;;15.70;8.65;;;;;;;;;;5055562;28;20651;-87
2022/03/26 13:36:40;;;;;;;15.20;8.05;;;;;;;;;;5055021;28;20268;-86
2022/03/26 13:39:21;;;;;;;11.00;7.60;;;;;;;;;;5055288;28;20217;-86
2022/03/26 13:41:48;;;;;;;11.90;7.57;;;;;;;;;;5055229;28;20233;-86
2022/03/26 13:44:16;;;;;;;17.67;7.63;;;;;;;;;;5055574;28;20562;-86
2022/03/26 13:46:44;;;;;;;12.07;8.23;;;;;;;;;;5055133;28;20245;-86
2022/03/26 13:49:24;;;;;;;14.90;7.03;;;;;;;;;;5055409;28;20236;-86
2022/03/26 13:51:51;;;;;;;14.57;8.40;;;;;;;;;;5055188;28;20237;-86
2022/03/26 13:54:19;;;;;;;12.63;7.55;;;;;;;;;;5056092;28;20206;-87
2022/03/26 13:56:50;;;;;;;15.52;8.02;;;;;;;;;;5054929;28;20233;-86
2022/03/26 13:59:17;;;;;;;17.42;7.40;;;;;;;;;;5055444;28;20226;-86
2022/03/26 14:01:44;;;;;;;16.60;7.72;;;;;;;;;;5054860;28;20236;-87
2022/03/26 14:04:23;;;;;;;15.80;7.32;;;;;;;;;;5054985;28;20202;-86
2022/03/26 14:06:50;;;;;;;12.02;7.38;;;;;;;;;;5055050;28;20280;-86
2022/03/26 14:09:19;;;;;;;14.30;7.63;;;;;;;;;;5055075;28;20337;-87
2022/03/26 14:11:46;;;;;;;10.20;6.90;;;;;;;;;;5054931;28;20238;-86
2022/03/26 14:14:13;;;;;;;11.38;7.32;;;;;;;;;;5055830;28;20256;-87
2022/03/26 14:16:40;;;;;;;16.38;6.82;;;;;;;;;;5054759;28;20264;-86
2022/03/26 14:19:07;;;;;;;11.90;7.10;;;;;;;;;;5055499;28;20222;-87
2022/03/26 14:21:35;;;;;;;18.33;8.25;;;;;;;;;;5054673;28;20601;-87
2022/03/26 14:24:02;;;;;;;12.02;7.18;;;;;;;;;;5054980;28;20213;-86
2022/03/26 14:26:29;;;;;;;13.13;7.18;;;;;;;;;;5055341;28;20248;-87
2022/03/26 14:29:07;;;;;;;11.90;7.15;;;;;;;;;;5058452;28;20237;-87
2022/03/26 14:31:34;;;;;;;13.65;6.78;;;;;;;;;;5048350;28;20234;-86